Time;durP1;ratioP1;P1;durP2;ratioP2;P2;SDS_P1;SDS_P2;PMS_P1;PMS_P2;Temp;Humidity;BMP_temperature;BMP_pressure;BME280_temperature;BME280_humidity;BME280_pressure;Samples;Min_cycle;Max_cycle;Signal;HPM_P1;HPM_P2
2023/05/14 00:00:28;;;;;;;;;;;;;;;10.64;100.00;96494.38;5032892;28;19926;-66
2023/05/14 00:02:54;;;;;;;;;;;;;;;10.56;100.00;96498.97;5053112;28;20740;-66
2023/05/14 00:05:19;;;;;;;;;;;;;;;10.48;100.00;96500.06;5036702;28;19924;-65
2023/05/14 00:07:45;;;;;;;;;;;;;;;10.43;100.00;96498.41;5042698;28;19924;-67
2023/05/14 00:10:10;;;;;;;;;;;;;;;10.47;100.00;96492.97;5038044;28;19932;-66
2023/05/14 00:12:36;;;;;;;;;;;;;;;10.44;100.00;96493.72;5041824;28;20388;-67
2023/05/14 00:15:01;;;;;;;;;;;;;;;10.46;100.00;96491.41;5041237;28;19924;-69
2023/05/14 00:17:27;;;;;;;;;;;;;;;10.50;100.00;96500.47;5038541;28;19924;-66
2023/05/14 00:19:52;;;;;;;;;;;;;;;10.47;100.00;96496.50;5040451;28;19917;-66
2023/05/14 00:22:18;;;;;;;;;;;;;;;10.50;100.00;96490.28;5036562;28;20274;-67
2023/05/14 00:24:43;;;;;;;;;;;;;;;10.54;100.00;96495.81;5042184;28;20351;-66
2023/05/14 00:27:08;;;;;;;;;;;;;;;10.58;100.00;96484.91;5035344;28;20336;-66
2023/05/14 00:29:34;;;;;;;;;;;;;;;10.51;100.00;96485.59;5042244;28;19928;-67
2023/05/14 00:31:59;;;;;;;;;;;;;;;10.60;100.00;96488.84;5042687;28;19975;-66
2023/05/14 00:34:24;;;;;;;;;;;;;;;10.55;100.00;96485.66;5036933;28;20019;-68
2023/05/14 00:36:50;;;;;;;;;;;;;;;10.56;100.00;96488.00;5041458;28;19917;-67
2023/05/14 00:39:15;;;;;;;;;;;;;;;10.75;100.00;96489.84;5019870;28;19917;-67
2023/05/14 00:41:41;;;;;;;;;;;;;;;10.67;100.00;96488.94;5041860;28;20424;-67
2023/05/14 00:44:06;;;;;;;;;;;;;;;10.65;100.00;96496.75;5037172;28;20309;-66
2023/05/14 00:46:31;;;;;;;;;;;;;;;10.54;100.00;96486.81;5039650;28;20457;-65
2023/05/14 00:48:57;;;;;;;;;;;;;;;10.56;100.00;96490.75;5040838;28;20023;-66
2023/05/14 00:51:23;;;;;;;;;;;;;;;10.61;100.00;96486.91;5037138;28;19978;-66
2023/05/14 00:53:49;;;;;;;;;;;;;;;10.60;100.00;96485.31;5041835;28;19921;-66
2023/05/14 00:56:14;;;;;;;;;;;;;;;10.48;100.00;96486.38;5035341;28;19932;-65
2023/05/14 00:58:40;;;;;;;;;;;;;;;10.43;100.00;96481.97;5006084;28;19917;-65
2023/05/14 01:01:05;;;;;;;;;;;;;;;10.51;100.00;96485.59;5035349;28;19932;-66
2023/05/14 01:03:32;;;;;;;;;;;;;;;10.56;100.00;96489.97;5040535;28;19921;-66
2023/05/14 01:05:59;;;;;;;;;;;;;;;10.60;100.00;96480.63;5040175;28;20007;-66
2023/05/14 01:08:48;;;;;;;;;;;;;;;10.62;100.00;96486.50;5035812;28;20450;-67
2023/05/14 01:11:35;;;;;;;;;;;;;;;10.69;100.00;96483.09;5034946;28;19968;-67
2023/05/14 01:14:06;;;;;;;;;;;;;;;10.69;100.00;96486.59;5039903;28;19917;-66
2023/05/14 01:16:32;;;;;;;;;;;;;;;10.70;100.00;96490.16;5040791;28;19924;-66
2023/05/14 01:18:59;;;;;;;;;;;;;;;10.55;100.00;96491.13;5039538;28;19917;-67
2023/05/14 01:21:39;;;;;;;;;;;;;;;10.44;100.00;96486.31;5034958;28;20039;-68
2023/05/14 01:24:05;;;;;;;;;;;;;;;10.70;100.00;96481.94;5034848;28;19925;-67
2023/05/14 01:26:31;;;;;;;;;;;;;;;10.73;100.00;96483.91;5039828;28;19921;-66
2023/05/14 01:29:08;;;;;;;;;;;;;;;10.76;100.00;96485.13;5040979;28;19944;-67
2023/05/14 01:31:35;;;;;;;;;;;;;;;10.61;100.00;96484.97;5023404;28;19925;-65
2023/05/14 01:34:02;;;;;;;;;;;;;;;10.65;100.00;96491.25;5039430;28;20397;-65
2023/05/14 01:36:28;;;;;;;;;;;;;;;10.58;100.00;96488.44;5037457;28;20007;-66
2023/05/14 01:38:54;;;;;;;;;;;;;;;10.60;100.00;96480.63;5040613;28;19917;-66
2023/05/14 01:41:21;;;;;;;;;;;;;;;10.59;100.00;96483.72;5035272;28;20275;-64
2023/05/14 01:43:47;;;;;;;;;;;;;;;10.65;100.00;96485.00;5040139;28;19916;-66
2023/05/14 01:46:12;;;;;;;;;;;;;;;10.67;100.00;96483.47;5034479;28;19925;-66
2023/05/14 01:48:37;;;;;;;;;;;;;;;10.68;100.00;96485.03;5038823;28;19920;-66
2023/05/14 01:51:03;;;;;;;;;;;;;;;10.63;100.00;96476.38;5037221;28;19925;-68
2023/05/14 01:53:28;;;;;;;;;;;;;;;10.63;100.00;96479.09;5037448;28;19931;-66
2023/05/14 01:55:53;;;;;;;;;;;;;;;10.58;100.00;96476.69;5039203;28;20008;-67
2023/05/14 01:58:19;;;;;;;;;;;;;;;10.68;100.00;96473.31;5035316;28;19917;-66
2023/05/14 02:00:45;;;;;;;;;;;;;;;10.84;100.00;96470.34;5040256;28;19970;-67
2023/05/14 02:03:10;;;;;;;;;;;;;;;10.81;100.00;96468.38;5034797;28;20568;-65
2023/05/14 02:05:35;;;;;;;;;;;;;;;10.65;100.00;96463.88;5038946;28;19917;-67
2023/05/14 02:08:01;;;;;;;;;;;;;;;10.67;100.00;96463.50;5040447;28;19921;-64
2023/05/14 02:10:26;;;;;;;;;;;;;;;10.66;100.00;96461.91;5034952;28;19932;-65
2023/05/14 02:12:51;;;;;;;;;;;;;;;10.69;100.00;96459.22;5023993;28;19935;-67
2023/05/14 02:15:17;;;;;;;;;;;;;;;10.60;100.00;96461.47;5017505;28;19920;-65
2023/05/14 02:17:42;;;;;;;;;;;;;;;10.61;100.00;96459.53;5039623;28;19921;-66
2023/05/14 02:20:09;;;;;;;;;;;;;;;10.67;100.00;96458.81;5014993;28;20366;-65
2023/05/14 02:22:34;;;;;;;;;;;;;;;10.65;100.00;96455.66;5039658;28;19920;-65
2023/05/14 02:25:00;;;;;;;;;;;;;;;10.56;100.00;96451.63;5039733;28;20028;-66
2023/05/14 02:27:25;;;;;;;;;;;;;;;10.49;100.00;96452.31;5032197;28;19924;-65
2023/05/14 02:29:51;;;;;;;;;;;;;;;10.51;100.00;96453.56;5036865;28;19929;-64
2023/05/14 02:32:16;;;;;;;;;;;;;;;10.57;100.00;96450.47;5032108;28;19917;-66
2023/05/14 02:34:41;;;;;;;;;;;;;;;10.59;100.00;96451.69;5040742;28;20336;-63
2023/05/14 02:37:07;;;;;;;;;;;;;;;10.56;100.00;96455.16;5032024;28;19917;-66
2023/05/14 02:39:32;;;;;;;;;;;;;;;10.64;100.00;96454.09;5038893;28;19916;-68
2023/05/14 02:41:57;;;;;;;;;;;;;;;10.74;100.00;96452.63;5039697;28;19994;-66
2023/05/14 02:44:23;;;;;;;;;;;;;;;10.80;100.00;96444.88;5035552;28;19982;-65
2023/05/14 02:46:48;;;;;;;;;;;;;;;10.83;100.00;96442.16;5039917;28;19925;-66
2023/05/14 02:49:13;;;;;;;;;;;;;;;10.83;100.00;96450.38;5035851;28;19925;-66
2023/05/14 02:51:39;;;;;;;;;;;;;;;10.85;100.00;96441.78;5040372;28;19964;-69
2023/05/14 02:54:04;;;;;;;;;;;;;;;10.90;100.00;96446.94;5035444;28;19925;-69
2023/05/14 02:56:30;;;;;;;;;;;;;;;10.95;100.00;96446.59;5020509;28;19917;-66
2023/05/14 02:58:55;;;;;;;;;;;;;;;10.95;100.00;96443.06;5039599;28;20402;-67
2023/05/14 03:01:21;;;;;;;;;;;;;;;10.97;100.00;96438.03;5034029;28;20188;-64
2023/05/14 03:03:46;;;;;;;;;;;;;;;11.00;100.00;96434.50;5039683;28;19948;-66
2023/05/14 03:06:11;;;;;;;;;;;;;;;11.02;100.00;96424.75;5033369;28;19917;-67
2023/05/14 03:08:37;;;;;;;;;;;;;;;11.03;100.00;96437.28;5040044;28;19966;-65
2023/05/14 03:11:02;;;;;;;;;;;;;;;11.00;100.00;96429.03;5043561;28;19929;-70
2023/05/14 03:13:27;;;;;;;;;;;;;;;11.03;100.00;96425.53;5048802;28;20394;-67
2023/05/14 03:15:56;;;;;;;;;;;;;;;11.05;100.00;96426.72;5038669;28;19917;-66
2023/05/14 03:18:22;;;;;;;;;;;;;;;11.04;100.00;96430.66;5031662;28;19963;-66
2023/05/14 03:20:47;;;;;;;;;;;;;;;10.98;100.00;96429.41;5037131;28;19917;-63
2023/05/14 03:23:13;;;;;;;;;;;;;;;10.99;100.00;96425.50;5013995;28;19947;-65
2023/05/14 03:25:39;;;;;;;;;;;;;;;11.00;100.00;96427.09;5037352;28;19999;-65
2023/05/14 03:28:04;;;;;;;;;;;;;;;10.97;100.00;96425.09;5035210;28;20032;-70
2023/05/14 03:30:29;;;;;;;;;;;;;;;10.98;100.00;96418.44;5039079;28;19929;-66
2023/05/14 03:32:55;;;;;;;;;;;;;;;10.98;100.00;96425.88;5037198;28;19921;-66
2023/05/14 03:35:21;;;;;;;;;;;;;;;11.03;100.00;96418.09;5033848;28;20007;-67
2023/05/14 03:37:46;;;;;;;;;;;;;;;11.09;100.00;96421.28;5039102;28;19943;-67
2023/05/14 03:40:11;;;;;;;;;;;;;;;11.13;100.00;96424.06;5049695;28;19921;-67
2023/05/14 03:42:37;;;;;;;;;;;;;;;11.09;100.00;96424.03;5049168;28;19916;-67
2023/05/14 03:45:02;;;;;;;;;;;;;;;11.09;100.00;96424.03;5029044;28;20011;-70
2023/05/14 03:47:28;;;;;;;;;;;;;;;11.06;100.00;96422.84;5036166;28;20031;-65
2023/05/14 03:49:53;;;;;;;;;;;;;;;11.10;100.00;96431.09;5038341;28;19921;-64
2023/05/14 03:52:18;;;;;;;;;;;;;;;11.06;100.00;96424.81;5032188;28;19921;-66
2023/05/14 03:54:44;;;;;;;;;;;;;;;11.07;100.00;96427.16;5038777;28;20416;-64
2023/05/14 03:57:09;;;;;;;;;;;;;;;11.11;100.00;96432.69;5016418;28;20317;-68
2023/05/14 03:59:34;;;;;;;;;;;;;;;11.16;100.00;96426.84;5038292;28;19924;-69
2023/05/14 04:02:00;;;;;;;;;;;;;;;11.22;100.00;96428.09;5039156;28;19971;-65
2023/05/14 04:04:25;;;;;;;;;;;;;;;11.24;100.00;96423.00;5036424;28;19917;-68
2023/05/14 04:06:50;;;;;;;;;;;;;;;11.33;100.00;96428.19;5044001;28;19925;-63
2023/05/14 04:09:16;;;;;;;;;;;;;;;11.43;100.00;96423.94;5031510;28;20289;-66
2023/05/14 04:11:41;;;;;;;;;;;;;;;11.46;100.00;96423.97;5037920;28;19932;-65
2023/05/14 04:14:07;;;;;;;;;;;;;;;11.46;100.00;96423.97;5037016;28;19921;-66
2023/05/14 04:16:32;;;;;;;;;;;;;;;11.39;100.00;96423.13;5041430;28;19960;-66
2023/05/14 04:18:59;;;;;;;;;;;;;;;11.41;100.00;96429.81;5041361;28;19963;-66
2023/05/14 04:21:24;;;;;;;;;;;;;;;11.41;100.00;96420.81;5035740;28;19929;-66
2023/05/14 04:23:50;;;;;;;;;;;;;;;11.39;100.00;96420.41;5040541;28;19928;-66
2023/05/14 04:26:15;;;;;;;;;;;;;;;11.39;100.00;96423.91;5036758;28;19917;-64
2023/05/14 04:28:41;;;;;;;;;;;;;;;11.44;100.00;96425.53;5042283;28;19917;-64
2023/05/14 04:31:06;;;;;;;;;;;;;;;11.35;100.00;96423.09;5034677;28;19932;-64
2023/05/14 04:33:31;;;;;;;;;;;;;;;11.24;100.00;96424.97;5042719;28;19928;-65
2023/05/14 04:35:57;;;;;;;;;;;;;;;11.23;100.00;96426.13;5042078;28;20007;-67
2023/05/14 04:38:22;;;;;;;;;;;;;;;11.31;100.00;96433.25;5038257;28;19976;-68
2023/05/14 04:40:48;;;;;;;;;;;;;;;11.41;100.00;96424.31;5040553;28;20007;-65
2023/05/14 04:43:13;;;;;;;;;;;;;;;11.44;100.00;96431.81;5037845;28;19917;-66
2023/05/14 04:45:39;;;;;;;;;;;;;;;11.44;100.00;96429.06;5044186;28;19917;-65
2023/05/14 04:48:06;;;;;;;;;;;;;;;11.31;100.00;96432.47;5039182;28;19928;-66
2023/05/14 04:50:32;;;;;;;;;;;;;;;11.35;100.00;96430.56;5025430;28;19931;-66
2023/05/14 04:52:57;;;;;;;;;;;;;;;11.35;100.00;96422.31;5042694;28;20377;-67
2023/05/14 04:55:23;;;;;;;;;;;;;;;11.46;100.00;96426.72;5036114;28;20327;-68
2023/05/14 04:57:48;;;;;;;;;;;;;;;11.54;100.00;96419.38;5042272;28;19956;-67
2023/05/14 05:00:14;;;;;;;;;;;;;;;11.59;100.00;96418.97;5038945;28;19931;-67
2023/05/14 05:02:40;;;;;;;;;;;;;;;11.69;100.00;96423.00;5048334;28;20314;-67
2023/05/14 05:05:05;;;;;;;;;;;;;;;11.78;100.00;96431.69;5043054;28;20357;-68
2023/05/14 05:07:31;;;;;;;;;;;;;;;11.89;100.00;96425.50;5048994;28;19936;-66
2023/05/14 05:09:56;;;;;;;;;;;;;;;11.98;100.00;96424.00;5048581;28;19921;-66
2023/05/14 05:12:22;;;;;;;;;;;;;;;12.00;100.00;96427.16;5045944;28;20562;-67
2023/05/14 05:14:47;;;;;;;;;;;;;;;11.99;100.00;96422.84;5050133;28;19921;-66
2023/05/14 05:17:13;;;;;;;;;;;;;;;12.04;100.00;96424.44;5027844;28;19931;-66
2023/05/14 05:19:38;;;;;;;;;;;;;;;12.07;100.00;96428.38;5047099;28;20352;-68
2023/05/14 05:22:04;;;;;;;;;;;;;;;12.06;100.00;96427.56;5027879;28;19951;-68
2023/05/14 05:24:29;;;;;;;;;;;;;;;12.08;100.00;96433.47;5047319;28;19927;-66
2023/05/14 05:26:55;;;;;;;;;;;;;;;11.99;100.00;96431.09;5048072;28;19936;-70
2023/05/14 05:29:21;;;;;;;;;;;;;;;12.01;100.00;96428.75;5043023;28;20014;-67
2023/05/14 05:31:47;;;;;;;;;;;;;;;11.97;100.00;96438.88;5047503;28;20234;-66
2023/05/14 05:34:12;;;;;;;;;;;;;;;12.02;100.00;96435.78;5043740;28;19917;-68
2023/05/14 05:36:37;;;;;;;;;;;;;;;12.01;100.00;96434.22;5045051;28;19956;-67
2023/05/14 05:39:03;;;;;;;;;;;;;;;11.94;100.00;96431.44;5048568;28;19920;-70
2023/05/14 05:41:29;;;;;;;;;;;;;;;11.88;100.00;96434.88;5045750;28;19974;-66
2023/05/14 05:43:54;;;;;;;;;;;;;;;11.84;100.00;96438.38;5050510;28;19932;-67
2023/05/14 05:46:20;;;;;;;;;;;;;;;11.86;100.00;96429.78;5041732;28;19928;-67
2023/05/14 05:48:45;;;;;;;;;;;;;;;11.92;100.00;96436.53;5049443;28;20023;-67
2023/05/14 05:51:11;;;;;;;;;;;;;;;11.33;100.00;96433.66;5043139;28;20451;-67
2023/05/14 05:53:36;;;;;;;;;;;;;;;11.54;100.00;96427.59;5047313;28;20120;-66
2023/05/14 05:56:01;;;;;;;;;;;;;;;11.54;100.00;96426.78;5047147;28;19933;-67
2023/05/14 05:58:27;;;;;;;;;;;;;;;11.65;100.00;96424.94;5041981;28;19924;-67
2023/05/14 06:00:52;;;;;;;;;;;;;;;11.82;100.00;96423.47;5049455;28;20289;-67
2023/05/14 06:03:18;;;;;;;;;;;;;;;11.78;100.00;96433.66;5043076;28;19933;-67
2023/05/14 06:05:43;;;;;;;;;;;;;;;11.84;100.00;96430.16;5045369;28;19928;-67
2023/05/14 06:08:08;;;;;;;;;;;;;;;12.00;100.00;96434.59;5043998;28;19968;-67
2023/05/14 06:10:35;;;;;;;;;;;;;;;12.00;100.00;96429.13;5046078;28;19994;-67
2023/05/14 06:13:00;;;;;;;;;;;;;;;12.06;100.00;96433.06;5046463;28;19963;-67
2023/05/14 06:15:25;;;;;;;;;;;;;;;12.24;100.00;96433.16;5025081;28;19924;-71
2023/05/14 06:17:50;;;;;;;;;;;;;;;12.53;100.00;96428.63;5048417;28;19921;-67
2023/05/14 06:20:16;;;;;;;;;;;;;;;12.68;100.00;96429.47;5040896;28;19928;-68
2023/05/14 06:22:41;;;;;;;;;;;;;;;12.84;100.00;96428.31;5046417;28;19932;-67
2023/05/14 06:25:07;;;;;;;;;;;;;;;12.98;100.00;96429.16;5039199;28;19920;-66
2023/05/14 06:27:32;;;;;;;;;;;;;;;13.01;100.00;96441.34;5047000;28;20007;-69
2023/05/14 06:29:57;;;;;;;;;;;;;;;12.87;100.00;96433.81;5047481;28;20405;-65
2023/05/14 06:32:23;;;;;;;;;;;;;;;12.51;100.00;96433.69;5036471;28;20357;-67
2023/05/14 06:34:48;;;;;;;;;;;;;;;12.82;100.00;96429.50;5041380;28;19920;-66
2023/05/14 06:37:13;;;;;;;;;;;;;;;13.15;100.00;96429.59;5037165;28;19921;-66
2023/05/14 06:39:38;;;;;;;;;;;;;;;13.31;100.00;96429.25;5042002;28;19921;-66
2023/05/14 06:42:04;;;;;;;;;;;;;;;13.34;100.00;96429.25;5037182;28;19937;-70
2023/05/14 06:44:30;;;;;;;;;;;;;;;12.90;100.00;96435.81;5040158;28;19960;-65
2023/05/14 06:46:56;;;;;;;;;;;;;;;12.27;100.00;96437.13;5041128;28;19921;-64
2023/05/14 06:49:21;;;;;;;;;;;;;;;12.09;100.00;96432.31;5040671;28;19920;-65
2023/05/14 06:51:46;;;;;;;;;;;;;;;12.02;100.00;96433.03;5033112;28;19964;-65
2023/05/14 06:54:11;;;;;;;;;;;;;;;12.04;100.00;96433.44;5039849;28;19925;-68
2023/05/14 06:56:37;;;;;;;;;;;;;;;11.96;100.00;96434.59;5022632;28;20394;-63
2023/05/14 06:59:02;;;;;;;;;;;;;;;12.19;100.00;96434.34;5038221;28;19921;-69
2023/05/14 07:01:28;;;;;;;;;;;;;;;12.16;100.00;96435.09;5021440;28;20394;-66
2023/05/14 07:03:53;;;;;;;;;;;;;;;12.17;100.00;96436.69;5041348;28;19963;-65
2023/05/14 07:06:18;;;;;;;;;;;;;;;12.38;100.00;96435.22;5033885;28;19917;-66
2023/05/14 07:08:46;;;;;;;;;;;;;;;12.28;100.00;96428.50;5038981;28;19928;-69
2023/05/14 07:11:12;;;;;;;;;;;;;;;12.03;100.00;96433.84;5035222;28;19932;-68
2023/05/14 07:13:38;;;;;;;;;;;;;;;12.04;100.00;96430.69;5006585;28;19917;-67
2023/05/14 07:16:03;;;;;;;;;;;;;;;12.09;100.00;96431.53;5041911;28;19925;-71
2023/05/14 07:18:29;;;;;;;;;;;;;;;11.95;100.00;96432.22;5035562;28;19979;-67
2023/05/14 07:20:54;;;;;;;;;;;;;;;11.90;100.00;96433.34;5043576;28;19971;-67
2023/05/14 07:23:19;;;;;;;;;;;;;;;12.28;100.00;96438.69;5033299;28;19916;-66
2023/05/14 07:25:45;;;;;;;;;;;;;;;12.56;100.00;96427.84;5039238;28;19977;-67
2023/05/14 07:28:10;;;;;;;;;;;;;;;12.51;100.00;96433.69;5033995;28;19942;-68
2023/05/14 07:30:35;;;;;;;;;;;;;;;12.26;100.00;96428.06;5021020;28;19943;-66
2023/05/14 07:33:01;;;;;;;;;;;;;;;12.60;100.00;96427.84;5040144;28;19931;-66
2023/05/14 07:35:26;;;;;;;;;;;;;;;12.74;100.00;96435.38;5015718;28;19944;-69
2023/05/14 07:37:51;;;;;;;;;;;;;;;12.78;100.00;96430.66;5039112;28;19955;-65
2023/05/14 07:40:17;;;;;;;;;;;;;;;12.54;100.00;96432.16;5033408;28;19976;-67
2023/05/14 07:42:42;;;;;;;;;;;;;;;12.74;100.00;96429.88;5039919;28;19924;-65
2023/05/14 07:45:08;;;;;;;;;;;;;;;12.93;100.00;96426.00;5033526;28;19916;-66
2023/05/14 07:47:36;;;;;;;;;;;;;;;12.91;100.00;96422.84;5038270;28;19968;-67
2023/05/14 07:50:02;;;;;;;;;;;;;;;12.55;100.00;96423.53;5040405;28;20016;-71
2023/05/14 07:52:27;;;;;;;;;;;;;;;12.35;100.00;96420.31;5021065;28;19916;-68
2023/05/14 07:54:53;;;;;;;;;;;;;;;12.48;100.00;96423.50;5043171;28;19916;-66
2023/05/14 07:57:18;;;;;;;;;;;;;;;12.82;100.00;96421.25;5038783;28;19916;-66
2023/05/14 07:59:43;;;;;;;;;;;;;;;13.16;100.00;96417.41;5042905;28;19916;-64
2023/05/14 08:02:11;;;;;;;;;;;;;;;13.55;100.00;96419.44;5037873;28;19920;-66
2023/05/14 08:04:36;;;;;;;;;;;;;;;13.75;100.00;96417.84;5041860;28;20389;-66
2023/05/14 08:07:02;;;;;;;;;;;;;;;14.00;100.00;96413.50;5040481;28;19974;-70
2023/05/14 08:09:27;;;;;;;;;;;;;;;14.24;100.00;96417.38;5038743;28;19963;-66
2023/05/14 08:11:52;;;;;;;;;;;;;;;14.32;100.00;96418.94;5041592;28;19916;-66
2023/05/14 08:14:18;;;;;;;;;;;;;;;14.27;100.00;96411.88;5034775;28;19967;-66
2023/05/14 08:16:43;;;;;;;;;;;;;;;14.46;100.00;96413.41;5041786;28;19985;-65
2023/05/14 08:19:08;;;;;;;;;;;;;;;14.66;100.00;96410.97;5036774;28;20304;-65
2023/05/14 08:21:33;;;;;;;;;;;;;;;14.85;100.00;96411.69;5041320;28;19935;-64
2023/05/14 08:23:59;;;;;;;;;;;;;;;14.99;100.00;96402.56;5042740;28;20412;-66
2023/05/14 08:26:24;;;;;;;;;;;;;;;15.04;100.00;96402.13;5036026;28;19925;-65
2023/05/14 08:28:49;;;;;;;;;;;;;;;14.80;100.00;96407.38;5040597;28;20349;-67
2023/05/14 08:31:15;;;;;;;;;;;;;;;14.90;100.00;96411.25;5035711;28;19925;-67
2023/05/14 08:33:40;;;;;;;;;;;;;;;15.01;100.00;96405.69;5041060;28;19948;-65
2023/05/14 08:36:06;;;;;;;;;;;;;;;15.07;100.00;96406.81;5036840;28;19956;-67
2023/05/14 08:38:31;;;;;;;;;;;;;;;14.24;100.00;96406.38;5025574;28;19917;-65
2023/05/14 08:40:57;;;;;;;;;;;;;;;14.48;100.00;96405.50;5040404;28;19917;-65
2023/05/14 08:43:25;;;;;;;;;;;;;;;14.10;100.00;96409.97;5034092;28;19929;-66
2023/05/14 08:45:52;;;;;;;;;;;;;;;14.54;100.00;96403.91;5039151;28;20313;-66
2023/05/14 08:48:19;;;;;;;;;;;;;;;14.90;100.00;96403.75;5037067;28;19928;-67
2023/05/14 08:50:44;;;;;;;;;;;;;;;15.04;100.00;96400.16;5041934;28;19932;-70
2023/05/14 08:53:10;;;;;;;;;;;;;;;15.16;100.00;96398.09;5036762;28;19935;-66
2023/05/14 08:55:36;;;;;;;;;;;;;;;15.33;100.00;96402.72;5041540;28;19917;-66
2023/05/14 08:58:01;;;;;;;;;;;;;;;13.44;100.00;96408.44;5029414;28;19928;-68
2023/05/14 09:00:27;;;;;;;;;;;;;;;13.90;100.00;96393.06;5037405;28;19917;-65
2023/05/14 09:02:53;;;;;;;;;;;;;;;13.67;100.00;96399.00;5042224;28;19913;-67
2023/05/14 09:05:19;;;;;;;;;;;;;;;13.64;100.00;96391.53;5034984;28;19924;-65
2023/05/14 09:07:45;;;;;;;;;;;;;;;13.16;100.00;96392.66;5041116;28;19986;-67
2023/05/14 09:10:10;;;;;;;;;;;;;;;13.89;100.00;96391.50;5037099;28;19924;-67
2023/05/14 09:12:35;;;;;;;;;;;;;;;13.51;100.00;96394.69;5041137;28;19917;-65
2023/05/14 09:15:01;;;;;;;;;;;;;;;13.38;100.00;96397.03;5041585;28;19917;-67
2023/05/14 09:17:26;;;;;;;;;;;;;;;13.77;100.00;96396.25;5035233;28;20282;-66
2023/05/14 09:19:52;;;;;;;;;;;;;;;13.09;100.00;96396.19;5039003;28;19913;-65
2023/05/14 09:22:18;;;;;;;;;;;;;;;12.96;100.00;96392.22;5035141;28;20043;-66
2023/05/14 09:24:44;;;;;;;;;;;;;;;13.04;100.00;96393.81;5040188;28;19978;-67
2023/05/14 09:27:16;;;;;;;;;;;;;;;13.35;100.00;96392.31;5034401;28;19913;-67
2023/05/14 09:29:42;;;;;;;;;;;;;;;13.43;100.00;96395.06;5039776;28;20003;-65
2023/05/14 09:32:09;;;;;;;;;;;;;;;12.96;100.00;96390.28;5036419;28;20023;-64
2023/05/14 09:34:37;;;;;;;;;;;;;;;13.30;100.00;96384.41;5040467;28;19931;-64
2023/05/14 09:37:04;;;;;;;;;;;;;;;13.12;100.00;96389.91;5038395;28;20393;-69
2023/05/14 09:39:30;;;;;;;;;;;;;;;13.62;100.00;96389.16;5038497;28;19949;-65
2023/05/14 09:41:55;;;;;;;;;;;;;;;14.31;100.00;96384.31;5039158;28;19917;-66
2023/05/14 09:44:21;;;;;;;;;;;;;;;14.73;100.00;96374.34;5034497;28;20461;-65
2023/05/14 09:46:47;;;;;;;;;;;;;;;14.93;100.00;96382.09;5022234;28;20337;-66
2023/05/14 09:49:13;;;;;;;;;;;;;;;15.34;98.23;96382.22;5035640;28;19927;-67
2023/05/14 09:51:38;;;;;;;;;;;;;;;14.72;96.19;96386.53;5039754;28;19925;-68
2023/05/14 09:54:04;;;;;;;;;;;;;;;15.20;96.40;96374.06;5036474;28;22913;-69
2023/05/14 09:56:31;;;;;;;;;;;;;;;15.67;95.17;96379.97;5039249;28;19925;-65
2023/05/14 09:58:56;;;;;;;;;;;;;;;15.91;92.84;96374.66;5040439;28;19948;-65
2023/05/14 10:01:23;;;;;;;;;;;;;;;15.02;95.43;96358.41;5036217;28;20018;-65
2023/05/14 10:03:49;;;;;;;;;;;;;;;13.84;100.00;96372.63;5040385;28;19940;-68
2023/05/14 10:06:15;;;;;;;;;;;;;;;13.76;100.00;96371.88;5035326;28;20019;-69
2023/05/14 10:08:42;;;;;;;;;;;;;;;13.44;100.00;96369.91;5040354;28;19932;-66
2023/05/14 10:11:12;;;;;;;;;;;;;;;13.65;100.00;96369.13;5035107;28;19924;-64
2023/05/14 10:13:38;;;;;;;;;;;;;;;14.28;100.00;96357.59;5039595;28;20429;-66
2023/05/14 10:16:08;;;;;;;;;;;;;;;14.46;99.01;96366.56;5036192;28;19921;-71
2023/05/14 10:18:38;;;;;;;;;;;;;;;14.31;96.82;96360.31;5038025;28;19918;-66
2023/05/14 10:21:04;;;;;;;;;;;;;;;13.86;100.00;96367.50;5016535;28;19939;-68
2023/05/14 10:23:30;;;;;;;;;;;;;;;14.61;99.21;96361.78;5039088;28;19921;-65
2023/05/14 10:25:56;;;;;;;;;;;;;;;13.77;100.00;96365.16;5039814;28;20374;-65
2023/05/14 10:28:22;;;;;;;;;;;;;;;14.09;100.00;96365.09;5050599;28;20158;-67
2023/05/14 10:30:48;;;;;;;;;;;;;;;14.50;100.00;96361.03;5055500;28;19925;-66
2023/05/14 10:33:15;;;;;;;;;;;;;;;14.93;98.64;96357.25;5036428;28;19959;-66
2023/05/14 10:36:06;;;;;;;;;;;;;;;14.84;94.02;96364.03;5037544;28;19917;-67
2023/05/14 10:38:32;;;;;;;;;;;;;;;14.33;100.00;96365.41;5035594;28;19927;-68
2023/05/14 10:41:02;;;;;;;;;;;;;;;14.31;96.81;96363.06;5038792;28;20323;-66
2023/05/14 10:43:29;;;;;;;;;;;;;;;14.38;95.67;96365.00;5035464;28;19923;-64
2023/05/14 10:45:55;;;;;;;;;;;;;;;14.57;94.23;96368.47;5039147;28;20458;-69
2023/05/14 10:48:20;;;;;;;;;;;;;;;14.20;96.54;96359.56;4999996;28;20033;-64
2023/05/14 10:50:50;;;;;;;;;;;;;;;15.00;93.11;96355.28;5039047;28;19955;-66
2023/05/14 10:53:17;;;;;;;;;;;;;;;15.92;87.45;96354.13;5031964;28;20021;-67
2023/05/14 10:55:43;;;;;;;;;;;;;;;15.95;86.55;96354.09;5054094;28;19920;-66
2023/05/14 10:58:11;;;;;;;;;;;;;;;16.43;82.40;96353.16;5049699;28;20436;-67
2023/05/14 11:00:37;;;;;;;;;;;;;;;16.52;79.98;96351.88;5040228;28;20386;-66
2023/05/14 11:03:04;;;;;;;;;;;;;;;15.10;87.94;96348.09;5037555;28;19913;-69
2023/05/14 11:05:29;;;;;;;;;;;;;;;14.49;95.04;96351.19;5037943;28;19917;-67
2023/05/14 11:07:56;;;;;;;;;;;;;;;14.36;96.96;96339.03;5038883;28;20298;-67
2023/05/14 11:10:24;;;;;;;;;;;;;;;14.02;96.66;96337.56;5033589;28;20484;-66
2023/05/14 11:12:50;;;;;;;;;;;;;;;13.77;99.87;96343.16;5037724;28;19917;-65
2023/05/14 11:15:16;;;;;;;;;;;;;;;13.54;100.00;96335.31;5034020;28;19962;-66
2023/05/14 11:17:42;;;;;;;;;;;;;;;13.70;99.58;96327.44;5038783;28;19978;-67
2023/05/14 11:20:08;;;;;;;;;;;;;;;14.13;97.51;96334.78;5032230;28;19917;-65
2023/05/14 11:22:34;;;;;;;;;;;;;;;14.98;93.86;96334.78;5035868;28;20357;-66
2023/05/14 11:24:59;;;;;;;;;;;;;;;15.34;88.89;96334.50;5025567;28;19924;-67
2023/05/14 11:27:25;;;;;;;;;;;;;;;15.37;85.23;96328.19;5037486;28;19921;-67
2023/05/14 11:29:50;;;;;;;;;;;;;;;15.09;88.38;96322.50;5043690;28;19925;-66
2023/05/14 11:32:16;;;;;;;;;;;;;;;15.45;86.06;96326.94;5038336;28;19917;-67
2023/05/14 11:34:43;;;;;;;;;;;;;;;14.80;90.31;96327.44;5023504;28;20038;-63
2023/05/14 11:37:09;;;;;;;;;;;;;;;14.17;94.37;96323.75;5036453;28;20385;-67
2023/05/14 11:39:36;;;;;;;;;;;;;;;15.24;91.36;96333.44;5024557;28;19925;-70
2023/05/14 11:42:08;;;;;;;;;;;;;;;15.77;86.84;96323.13;5042558;28;19924;-67
2023/05/14 11:44:34;;;;;;;;;;;;;;;16.18;85.28;96323.06;5041988;28;19921;-67
2023/05/14 11:47:03;;;;;;;;;;;;;;;14.85;88.61;96326.22;5042671;28;20362;-67
2023/05/14 11:49:29;;;;;;;;;;;;;;;14.72;89.20;96325.91;5039942;28;19940;-66
2023/05/14 11:52:01;;;;;;;;;;;;;;;14.28;90.51;96314.28;5041752;28;19925;-70
2023/05/14 11:54:27;;;;;;;;;;;;;;;14.51;90.33;96318.50;5038730;28;19921;-67
2023/05/14 11:56:53;;;;;;;;;;;;;;;15.09;89.21;96321.72;5041404;28;19967;-65
2023/05/14 11:59:18;;;;;;;;;;;;;;;14.95;90.37;96308.03;5035170;28;20519;-68
2023/05/14 12:01:45;;;;;;;;;;;;;;;14.47;94.72;96321.25;5042208;28;19924;-66
2023/05/14 12:04:11;;;;;;;;;;;;;;;13.95;95.21;96318.31;5033284;28;19924;-66
2023/05/14 12:06:37;;;;;;;;;;;;;;;13.82;98.61;96322.69;5039903;28;19920;-65
2023/05/14 12:09:03;;;;;;;;;;;;;;;13.67;100.00;96322.72;5039859;28;19921;-69
2023/05/14 12:11:32;;;;;;;;;;;;;;;13.68;99.12;96315.25;5043481;28;19936;-66
2023/05/14 12:14:00;;;;;;;;;;;;;;;13.70;99.17;96302.69;5042685;28;19923;-66
2023/05/14 12:16:31;;;;;;;;;;;;;;;14.05;98.50;96314.00;5033634;28;19963;-64
2023/05/14 12:19:00;;;;;;;;;;;;;;;14.61;92.17;96311.41;5037327;28;19998;-65
2023/05/14 12:21:26;;;;;;;;;;;;;;;15.13;88.22;96316.19;5032527;28;20478;-65
2023/05/14 12:23:58;;;;;;;;;;;;;;;15.76;86.39;96316.81;5043267;28;19924;-67
2023/05/14 12:26:25;;;;;;;;;;;;;;;16.29;85.29;96306.34;5037260;28;19917;-67
2023/05/14 12:28:55;;;;;;;;;;;;;;;15.95;82.37;96307.13;5041256;28;20019;-66
2023/05/14 12:31:26;;;;;;;;;;;;;;;15.78;88.88;96302.59;5038382;28;20383;-66